createdAt,value
2022-08-14T00:02:01.607Z,45.10
2022-08-14T00:04:32.108Z,44.86
2022-08-14T00:07:03.677Z,44.97
2022-08-14T00:09:33.149Z,44.68
2022-08-14T00:11:59.750Z,44.79
2022-08-14T00:14:27.364Z,45.17
2022-08-14T00:16:56.114Z,44.80
2022-08-14T00:19:23.309Z,44.66
2022-08-14T00:21:51.688Z,45.03
2022-08-14T00:24:22.926Z,44.71
2022-08-14T00:26:55.624Z,45.08
2022-08-14T00:29:25.663Z,44.99
2022-08-14T00:31:55.991Z,44.81
2022-08-14T00:34:37.664Z,45.11
2022-08-14T00:37:11.325Z,44.94
2022-08-14T00:39:39.551Z,45.13
2022-08-14T00:42:07.608Z,44.90
2022-08-14T00:44:48.410Z,44.89
2022-08-14T00:47:16.201Z,45.21
2022-08-14T00:49:43.728Z,44.84
2022-08-14T00:52:14.160Z,45.06
2022-08-14T00:54:45.580Z,45.18
2022-08-14T00:57:12.459Z,44.82
2022-08-14T00:59:39.507Z,45.18
2022-08-14T01:02:09.505Z,44.99
2022-08-14T01:04:53.862Z,45.05
2022-08-14T01:07:22.965Z,45.13
2022-08-14T01:09:56.908Z,45.17
2022-08-14T01:12:26.730Z,45.36
2022-08-14T01:15:09.355Z,45.35
2022-08-14T01:17:54.905Z,45.35
2022-08-14T01:20:41.137Z,45.56
2022-08-14T01:23:15.626Z,45.30
2022-08-14T01:25:46.136Z,45.70
2022-08-14T01:28:46.229Z,45.49
2022-08-14T01:31:00.336Z,45.82
2022-08-14T01:33:30.207Z,45.50
2022-08-14T01:36:07.237Z,45.35
2022-08-14T01:38:51.490Z,45.63
2022-08-14T01:41:22.997Z,45.47
2022-08-14T01:44:02.406Z,45.76
2022-08-14T01:46:37.413Z,45.79
2022-08-14T01:49:07.816Z,45.67
2022-08-14T01:51:35.448Z,45.35
2022-08-14T01:54:24.270Z,45.39
2022-08-14T01:57:11.600Z,45.69
2022-08-14T01:59:43.782Z,45.58
2022-08-14T02:02:19.621Z,45.88
2022-08-14T02:04:57.172Z,46.07
2022-08-14T02:07:34.224Z,46.04
2022-08-14T02:10:15.913Z,45.58
2022-08-14T02:12:46.169Z,45.93
2022-08-14T02:15:21.768Z,45.93
2022-08-14T02:17:49.892Z,46.01
2022-08-14T02:20:23.391Z,46.11
2022-08-14T02:22:52.139Z,45.92
2022-08-14T02:25:21.042Z,46.10
2022-08-14T02:28:22.669Z,46.27
2022-08-14T02:30:38.549Z,46.22
2022-08-14T02:33:07.146Z,46.53
2022-08-14T02:35:33.659Z,46.40
2022-08-14T02:38:07.361Z,46.36
2022-08-14T02:40:38.613Z,46.69
2022-08-14T02:43:07.928Z,46.25
2022-08-14T02:45:44.189Z,46.71
2022-08-14T02:49:01.113Z,46.36
2022-08-14T02:51:01.282Z,46.97
2022-08-14T02:53:29.922Z,46.61
2022-08-14T02:56:03.314Z,46.71
2022-08-14T02:58:42.282Z,46.71
2022-08-14T03:01:10.339Z,46.63
2022-08-14T03:03:38.782Z,46.67
2022-08-14T03:06:07.227Z,46.94
2022-08-14T03:08:37.930Z,46.68
2022-08-14T03:11:09.287Z,46.76
2022-08-14T03:13:37.501Z,46.76
2022-08-14T03:16:09.018Z,46.94
2022-08-14T03:18:48.333Z,46.96
2022-08-14T03:21:22.859Z,46.76
2022-08-14T03:24:06.708Z,47.09
2022-08-14T03:26:45.327Z,47.14
2022-08-14T03:29:14.500Z,47.16
2022-08-14T03:31:42.026Z,47.01
2022-08-14T03:34:24.695Z,46.95
2022-08-14T03:37:29.672Z,47.29
2022-08-14T03:39:44.793Z,47.26
2022-08-14T03:42:19.411Z,47.51
2022-08-14T03:45:18.895Z,47.05
2022-08-14T03:47:46.690Z,47.25
2022-08-14T03:50:30.744Z,47.31
2022-08-14T03:53:02.581Z,47.53
2022-08-14T03:55:30.304Z,47.60
2022-08-14T03:57:57.666Z,47.59
2022-08-14T04:00:43.288Z,47.80
2022-08-14T04:03:10.812Z,47.75
2022-08-14T04:05:43.370Z,47.96
2022-08-14T04:08:29.791Z,47.87
2022-08-14T04:10:59.438Z,47.92
2022-08-14T04:13:31.892Z,48.02
2022-08-14T04:16:12.410Z,47.96
2022-08-14T04:18:42.256Z,47.94
2022-08-14T04:21:10.329Z,47.91
2022-08-14T04:23:38.756Z,48.12
2022-08-14T04:26:14.583Z,48.18
2022-08-14T04:29:01.975Z,48.02
2022-08-14T04:32:59.877Z,48.03
2022-08-14T04:34:17.038Z,48.12
2022-08-14T04:37:07.419Z,48.23
2022-08-14T04:39:56.540Z,48.33
2022-08-14T04:42:47.111Z,48.57
2022-08-14T04:45:20.204Z,48.44
2022-08-14T04:48:05.481Z,48.49
2022-08-14T04:50:43.793Z,48.62
2022-08-14T04:53:19.036Z,48.56
2022-08-14T04:55:51.815Z,48.58
2022-08-14T04:58:32.065Z,48.51
2022-08-14T05:01:00.723Z,48.83
2022-08-14T05:03:31.364Z,48.52
2022-08-14T05:06:01.248Z,48.59
2022-08-14T05:08:50.780Z,48.57
2022-08-14T05:11:16.348Z,48.65
2022-08-14T05:16:31.124Z,48.85
2022-08-14T05:19:18.095Z,48.79
2022-08-14T05:21:59.395Z,48.95
2022-08-14T05:24:29.193Z,48.82
2022-08-14T05:26:55.828Z,48.90
2022-08-14T05:29:23.256Z,48.71
2022-08-14T05:31:55.799Z,48.80
2022-08-14T05:34:23.824Z,48.79
2022-08-14T05:37:02.759Z,48.89
2022-08-14T05:39:31.151Z,48.82
2022-08-14T05:41:58.245Z,48.85
2022-08-14T05:44:29.525Z,48.78
2022-08-14T05:46:57.398Z,48.78
2022-08-14T05:49:26.122Z,49.13
2022-08-14T05:52:01.644Z,49.26
2022-08-14T05:54:30.669Z,49.02
2022-08-14T05:57:04.692Z,49.23
2022-08-14T05:59:39.006Z,49.29
2022-08-14T06:02:10.032Z,49.21
2022-08-14T06:04:37.930Z,49.22
2022-08-14T06:07:04.854Z,49.10
2022-08-14T06:09:35.870Z,49.27
2022-08-14T06:12:11.818Z,49.34
2022-08-14T06:14:39.178Z,49.47
2022-08-14T06:17:05.966Z,49.78
2022-08-14T06:19:32.605Z,49.86
2022-08-14T06:24:27.590Z,49.85
2022-08-14T06:27:04.022Z,49.89
2022-08-14T06:29:33.535Z,50.22
2022-08-14T06:32:52.418Z,50.15
2022-08-14T06:35:04.293Z,50.27
2022-08-14T06:37:51.438Z,50.48
2022-08-14T06:40:27.154Z,50.29
2022-08-14T06:43:04.175Z,50.31
2022-08-14T06:45:36.106Z,50.20
2022-08-14T06:48:06.381Z,50.59
2022-08-14T06:50:39.631Z,50.96
2022-08-14T06:53:07.269Z,51.10
2022-08-14T06:55:34.367Z,51.26
2022-08-14T06:58:04.218Z,51.44
2022-08-14T07:00:32.694Z,51.48
2022-08-14T07:03:19.181Z,51.25
2022-08-14T07:05:55.992Z,51.50
2022-08-14T07:08:28.753Z,51.31
2022-08-14T07:11:01.014Z,51.65
2022-08-14T07:13:28.577Z,51.46
2022-08-14T07:15:58.991Z,51.40
2022-08-14T07:18:29.745Z,51.67
2022-08-14T07:21:00.997Z,51.47
2022-08-14T07:23:27.844Z,51.65
2022-08-14T07:26:00.049Z,51.58
2022-08-14T07:28:29.953Z,51.36
2022-08-14T07:31:04.627Z,51.74
2022-08-14T07:33:45.562Z,51.88
2022-08-14T07:36:24.423Z,52.18
2022-08-14T07:38:54.638Z,51.89
2022-08-14T07:41:22.584Z,51.70
2022-08-14T07:43:55.830Z,51.86
2022-08-14T07:46:29.423Z,51.90
2022-08-14T07:48:58.114Z,51.95
2022-08-14T07:51:26.020Z,51.66
2022-08-14T07:53:57.187Z,51.67
2022-08-14T07:56:47.935Z,51.83
2022-08-14T07:59:11.481Z,51.81
2022-08-14T08:01:48.291Z,51.61
2022-08-14T08:04:24.554Z,51.30
2022-08-14T08:06:52.851Z,51.18
2022-08-14T08:09:32.337Z,51.11
2022-08-14T08:12:05.002Z,51.46
2022-08-14T08:14:56.858Z,51.57
2022-08-14T08:17:23.385Z,51.68
2022-08-14T08:19:51.449Z,51.71
2022-08-14T08:22:18.536Z,51.31
2022-08-14T08:24:45.025Z,51.60
2022-08-14T08:27:19.772Z,51.34
2022-08-14T08:29:51.128Z,51.58
2022-08-14T08:32:18.166Z,51.88
2022-08-14T08:34:46.143Z,51.71
2022-08-14T08:37:13.863Z,51.75
2022-08-14T08:40:03.305Z,51.49
2022-08-14T08:42:41.457Z,51.15
2022-08-14T08:45:15.487Z,51.33
2022-08-14T08:47:45.275Z,51.62
2022-08-14T08:50:31.314Z,51.21
2022-08-14T08:53:00.329Z,51.39
2022-08-14T08:55:31.477Z,51.06
2022-08-14T08:58:05.359Z,50.94
2022-08-14T09:00:34.202Z,51.31
2022-08-14T09:03:06.223Z,51.24
2022-08-14T09:05:38.427Z,51.08
2022-08-14T09:08:31.626Z,50.77
2022-08-14T09:11:02.181Z,50.71
2022-08-14T09:13:30.569Z,50.95
2022-08-14T09:15:57.584Z,50.85
2022-08-14T09:18:24.420Z,50.70
2022-08-14T09:20:54.680Z,50.58
2022-08-14T09:23:34.581Z,50.41
2022-08-14T09:26:20.880Z,50.57
2022-08-14T09:28:48.205Z,50.32
2022-08-14T09:31:18.621Z,50.23
2022-08-14T09:34:27.238Z,50.13
2022-08-14T09:37:19.921Z,49.84
2022-08-14T09:39:55.845Z,49.86
2022-08-14T09:42:32.932Z,50.00
2022-08-14T09:45:23.833Z,49.57
2022-08-14T09:47:55.764Z,49.71
2022-08-14T09:50:27.799Z,49.90
2022-08-14T09:53:00.038Z,49.83
2022-08-14T09:55:36.904Z,49.47
2022-08-14T09:58:23.106Z,49.53
2022-08-14T10:00:59.357Z,49.41
2022-08-14T10:03:33.848Z,49.40
2022-08-14T10:06:19.467Z,49.21
2022-08-14T10:08:52.290Z,49.29
2022-08-14T10:11:34.922Z,49.26
2022-08-14T10:14:29.374Z,49.16
2022-08-14T10:17:02.530Z,49.05
2022-08-14T10:19:31.601Z,49.30
2022-08-14T10:23:14.631Z,49.00
2022-08-14T10:24:55.934Z,49.12
2022-08-14T10:27:26.717Z,49.06
2022-08-14T10:29:58.119Z,49.09
2022-08-14T10:32:29.044Z,48.96
2022-08-14T10:35:14.213Z,48.85
2022-08-14T10:37:46.715Z,48.81
2022-08-14T10:40:37.407Z,48.81
2022-08-14T10:43:02.715Z,48.63
2022-08-14T10:45:35.556Z,48.68
2022-08-14T10:48:35.496Z,48.80
2022-08-14T10:51:03.428Z,48.78
2022-08-14T10:53:37.063Z,48.44
2022-08-14T10:56:21.601Z,48.74
2022-08-14T10:59:07.151Z,48.52
2022-08-14T11:01:40.999Z,48.78
2022-08-14T11:04:20.261Z,48.40
2022-08-14T11:06:53.352Z,48.33
2022-08-14T11:09:20.017Z,48.36
2022-08-14T11:11:49.319Z,48.11
2022-08-14T11:14:22.997Z,48.22
2022-08-14T11:16:54.003Z,48.40
2022-08-14T11:19:25.079Z,48.16
2022-08-14T11:21:56.018Z,48.20
2022-08-14T11:24:51.047Z,48.06
2022-08-14T11:27:18.965Z,47.93
2022-08-14T11:29:52.769Z,47.90
2022-08-14T11:32:29.196Z,47.93
2022-08-14T11:34:58.123Z,47.79
2022-08-14T11:37:39.351Z,47.81
2022-08-14T11:40:16.189Z,47.30
2022-08-14T11:42:56.552Z,47.04
2022-08-14T11:45:29.847Z,46.95
2022-08-14T11:48:59.065Z,46.17
2022-08-14T11:50:43.533Z,45.65
2022-08-14T11:53:31.343Z,45.48
2022-08-14T11:56:02.302Z,45.19
2022-08-14T11:58:36.801Z,44.90
2022-08-14T12:01:06.897Z,44.96
2022-08-14T12:03:51.643Z,44.60
2022-08-14T12:06:28.663Z,44.93
2022-08-14T12:09:08.457Z,44.08
2022-08-14T12:11:43.477Z,43.22
2022-08-14T12:14:30.849Z,42.54
2022-08-14T12:17:11.896Z,42.73
2022-08-14T12:19:58.797Z,43.34
2022-08-14T12:22:45.510Z,42.68
2022-08-14T12:25:24.926Z,42.22
2022-08-14T12:27:59.330Z,41.96
2022-08-14T12:30:43.778Z,42.34
2022-08-14T12:33:33.802Z,42.45
2022-08-14T12:36:07.925Z,42.21
2022-08-14T12:38:43.742Z,42.39
2022-08-14T12:41:21.071Z,42.04
2022-08-14T12:43:57.300Z,42.64
2022-08-14T12:46:35.858Z,42.14
2022-08-14T12:49:09.242Z,42.32
2022-08-14T12:51:35.826Z,41.90
2022-08-14T12:54:19.417Z,42.45
2022-08-14T12:57:19.689Z,42.59
2022-08-14T12:59:47.504Z,41.96
2022-08-14T13:02:26.157Z,42.09
2022-08-14T13:04:57.806Z,41.92
2022-08-14T13:07:32.933Z,41.31
2022-08-14T13:10:00.793Z,41.15
2022-08-14T13:13:12.015Z,41.91
2022-08-14T13:15:36.328Z,41.12
2022-08-14T13:18:04.698Z,41.49
2022-08-14T13:20:33.388Z,41.15
2022-08-14T13:23:02.348Z,41.17
2022-08-14T13:25:29.495Z,41.22
2022-08-14T13:27:58.908Z,41.45
2022-08-14T13:30:26.990Z,41.61
2022-08-14T13:32:54.977Z,41.26
2022-08-14T13:35:25.057Z,41.11
2022-08-14T13:37:53.506Z,41.19
2022-08-14T13:40:26.400Z,41.37
2022-08-14T13:42:56.751Z,40.90
2022-08-14T13:45:33.622Z,41.11
2022-08-14T13:48:27.637Z,39.99
2022-08-14T13:50:59.322Z,40.76
2022-08-14T13:53:33.347Z,40.84
2022-08-14T13:56:01.510Z,40.31
2022-08-14T13:58:35.537Z,40.25
2022-08-14T14:01:04.523Z,40.15
2022-08-14T14:03:35.038Z,40.20
2022-08-14T14:06:03.472Z,39.48
2022-08-14T14:08:47.162Z,39.86
2022-08-14T14:11:15.923Z,39.45
2022-08-14T14:13:46.017Z,39.69
2022-08-14T14:16:15.045Z,39.60
2022-08-14T14:18:52.113Z,39.55
2022-08-14T14:21:21.757Z,39.72
2022-08-14T14:23:49.153Z,39.95
2022-08-14T14:26:23.086Z,40.14
2022-08-14T14:28:55.271Z,40.17
2022-08-14T14:31:29.813Z,39.59
2022-08-14T14:34:00.148Z,38.97
2022-08-14T14:36:29.395Z,38.95
2022-08-14T14:38:57.205Z,39.05
2022-08-14T14:41:38.176Z,39.41
2022-08-14T14:44:13.542Z,39.04
2022-08-14T14:46:46.103Z,39.26
2022-08-14T14:49:15.737Z,39.04
2022-08-14T14:51:46.926Z,38.62
2022-08-14T14:54:30.833Z,39.07
2022-08-14T14:57:00.466Z,38.84
2022-08-14T14:59:30.690Z,38.66
2022-08-14T15:02:06.282Z,38.46
2022-08-14T15:04:43.855Z,38.44
2022-08-14T15:07:12.650Z,38.56
2022-08-14T15:09:39.722Z,38.36
2022-08-14T15:12:27.953Z,38.24
2022-08-14T15:14:58.109Z,38.61
2022-08-14T15:17:41.205Z,38.24
2022-08-14T15:20:16.871Z,38.17
2022-08-14T15:22:50.954Z,38.75
2022-08-14T15:25:18.877Z,38.31
2022-08-14T15:27:51.017Z,38.08
2022-08-14T15:30:23.791Z,38.13
2022-08-14T15:32:53.151Z,38.46
2022-08-14T15:35:22.601Z,38.71
2022-08-14T15:37:55.730Z,38.47
2022-08-14T15:40:23.291Z,37.74
2022-08-14T15:42:49.814Z,37.98
2022-08-14T15:45:17.162Z,38.13
2022-08-14T15:47:43.952Z,37.81
2022-08-14T15:50:10.933Z,37.64
2022-08-14T15:52:38.395Z,37.68
2022-08-14T15:55:14.835Z,37.90
2022-08-14T15:58:02.144Z,37.85
2022-08-14T16:00:51.944Z,37.88
2022-08-14T16:03:24.954Z,37.67
2022-08-14T16:06:02.006Z,37.97
2022-08-14T16:08:30.702Z,38.01
2022-08-14T16:11:02.402Z,38.52
2022-08-14T16:13:41.372Z,37.70
2022-08-14T16:16:48.121Z,37.57
2022-08-14T16:19:09.613Z,37.58
2022-08-14T16:21:40.036Z,37.84
2022-08-14T16:24:26.939Z,37.64
2022-08-14T16:27:00.915Z,37.94
2022-08-14T16:29:30.227Z,37.59
2022-08-14T16:32:00.027Z,38.21
2022-08-14T16:34:46.854Z,38.29
2022-08-14T16:37:16.593Z,38.35
2022-08-14T16:39:44.051Z,38.55
2022-08-14T16:42:38.946Z,38.54
2022-08-14T16:44:59.296Z,38.52
2022-08-14T16:47:32.232Z,38.35
2022-08-14T16:50:08.777Z,38.20
2022-08-14T16:52:44.398Z,37.99
2022-08-14T16:55:22.322Z,38.45
2022-08-14T16:57:58.883Z,38.40
2022-08-14T17:00:44.071Z,38.05
2022-08-14T17:03:12.787Z,38.66
2022-08-14T17:05:43.514Z,38.61
2022-08-14T17:08:41.545Z,38.03
2022-08-14T17:11:09.980Z,38.33
2022-08-14T17:13:59.935Z,38.48
2022-08-14T17:16:37.525Z,38.41
2022-08-14T17:19:05.509Z,38.90
2022-08-14T17:21:38.206Z,38.83
2022-08-14T17:24:57.594Z,38.65
2022-08-14T17:26:57.348Z,39.06
2022-08-14T17:29:29.663Z,38.73
2022-08-14T17:32:22.105Z,38.76
2022-08-14T17:34:57.853Z,38.77
2022-08-14T17:37:40.868Z,38.67
2022-08-14T17:40:15.595Z,38.63
2022-08-14T17:42:51.165Z,38.84
2022-08-14T17:45:42.835Z,38.97
2022-08-14T17:49:10.001Z,38.78
2022-08-14T17:51:23.364Z,39.07
2022-08-14T17:53:52.776Z,39.26
2022-08-14T17:56:28.956Z,39.15
2022-08-14T17:59:03.931Z,39.28
2022-08-14T18:01:35.913Z,39.15
2022-08-14T18:04:28.239Z,39.26
2022-08-14T18:06:57.779Z,39.15
2022-08-14T18:09:56.723Z,39.44
2022-08-14T18:12:32.876Z,39.34
2022-08-14T18:15:19.307Z,39.25
2022-08-14T18:17:52.589Z,38.98
2022-08-14T18:21:43.106Z,39.18
2022-08-14T18:23:13.169Z,39.42
2022-08-14T18:25:50.343Z,39.52
2022-08-14T18:28:48.564Z,39.12
2022-08-14T18:31:43.446Z,39.48
2022-08-14T18:34:30.824Z,39.30
2022-08-14T18:37:09.461Z,38.91
2022-08-14T18:40:02.791Z,39.02
2022-08-14T18:42:34.630Z,39.53
2022-08-14T18:45:01.665Z,39.69
2022-08-14T18:47:32.636Z,39.99
2022-08-14T18:50:27.366Z,40.34
2022-08-14T18:53:07.409Z,40.39
2022-08-14T18:55:33.836Z,40.26
2022-08-14T18:58:00.760Z,40.49
2022-08-14T19:00:32.072Z,40.43
2022-08-14T19:03:00.022Z,40.48
2022-08-14T19:05:47.546Z,40.68
2022-08-14T19:08:24.724Z,40.76
2022-08-14T19:11:01.890Z,40.75
2022-08-14T19:13:47.873Z,40.92
2022-08-14T19:16:26.022Z,40.99
2022-08-14T19:19:00.500Z,40.94
2022-08-14T19:21:34.567Z,40.95
2022-08-14T19:24:27.323Z,41.12
2022-08-14T19:27:24.824Z,40.95
2022-08-14T19:30:25.125Z,40.97
2022-08-14T19:32:55.963Z,41.06
2022-08-14T19:35:55.054Z,40.75
2022-08-14T19:38:47.517Z,40.83
2022-08-14T19:41:16.162Z,40.79
2022-08-14T19:43:55.968Z,40.72
2022-08-14T19:46:38.538Z,40.86
2022-08-14T19:49:21.581Z,40.71
2022-08-14T19:52:02.396Z,40.71
2022-08-14T19:54:31.035Z,40.43
2022-08-14T19:56:57.532Z,40.53
2022-08-14T19:59:24.899Z,40.47
2022-08-14T20:02:05.949Z,40.42
2022-08-14T20:04:47.761Z,40.12
2022-08-14T20:07:59.890Z,40.42
2022-08-14T20:11:03.177Z,40.48
2022-08-14T20:13:38.531Z,40.23
2022-08-14T20:16:11.795Z,40.61
2022-08-14T20:18:49.368Z,40.39
2022-08-14T20:21:16.264Z,40.51
2022-08-14T20:23:43.114Z,40.18
2022-08-14T20:26:31.684Z,40.61
2022-08-14T20:29:00.142Z,40.49
2022-08-14T20:31:36.900Z,40.58
2022-08-14T20:34:25.190Z,40.58
2022-08-14T20:37:04.105Z,40.74
2022-08-14T20:39:34.427Z,40.69
2022-08-14T20:42:29.872Z,40.55
2022-08-14T20:45:21.638Z,40.85
2022-08-14T20:47:58.276Z,40.53
2022-08-14T20:50:28.916Z,40.43
2022-08-14T20:53:00.560Z,40.80
2022-08-14T20:55:36.452Z,40.83
2022-08-14T20:58:10.058Z,40.72
2022-08-14T21:01:05.889Z,40.72
2022-08-14T21:03:57.229Z,40.70
2022-08-14T21:07:23.117Z,40.71
2022-08-14T21:09:21.190Z,40.69
2022-08-14T21:12:07.902Z,40.73
2022-08-14T21:14:54.972Z,40.75
2022-08-14T21:17:25.208Z,41.01
2022-08-14T21:19:53.232Z,40.77
2022-08-14T21:22:19.666Z,41.15
2022-08-14T21:24:47.416Z,40.93
2022-08-14T21:27:19.681Z,41.20
2022-08-14T21:29:53.474Z,41.00
2022-08-14T21:32:47.219Z,41.07
2022-08-14T21:35:24.358Z,41.15
2022-08-14T21:37:53.314Z,41.09
2022-08-14T21:40:40.465Z,41.07
2022-08-14T21:43:18.348Z,41.25
2022-08-14T21:45:56.107Z,41.26
2022-08-14T21:48:31.706Z,41.69
2022-08-14T21:51:54.577Z,41.35
2022-08-14T21:53:58.654Z,41.49
2022-08-14T21:56:37.215Z,41.78
2022-08-14T21:59:08.946Z,41.66
2022-08-14T22:01:59.554Z,41.73
2022-08-14T22:04:32.991Z,41.90
2022-08-14T22:07:17.468Z,41.82
2022-08-14T22:09:45.467Z,42.02
2022-08-14T22:12:58.719Z,42.19
2022-08-14T22:15:11.590Z,42.05
2022-08-14T22:17:44.339Z,42.03
2022-08-14T22:20:12.763Z,42.30
2022-08-14T22:22:44.753Z,42.13
2022-08-14T22:25:16.158Z,42.27
2022-08-14T22:27:56.292Z,42.26
2022-08-14T22:30:25.129Z,42.52
2022-08-14T22:32:57.362Z,42.52
2022-08-14T22:35:25.313Z,42.44
2022-08-14T22:38:01.770Z,42.47
2022-08-14T22:41:03.676Z,42.52
2022-08-14T22:43:27.719Z,42.63
2022-08-14T22:45:58.071Z,42.74
2022-08-14T22:48:29.732Z,42.59
2022-08-14T22:50:56.278Z,42.73
2022-08-14T22:53:24.070Z,42.99
2022-08-14T22:55:56.594Z,43.14
2022-08-14T22:58:30.703Z,42.88
2022-08-14T23:01:04.678Z,43.10
2022-08-14T23:03:36.261Z,43.15
2022-08-14T23:07:01.379Z,42.76
2022-08-14T23:08:57.791Z,43.09
2022-08-14T23:11:28.707Z,42.83
2022-08-14T23:13:55.401Z,43.04
2022-08-14T23:16:24.054Z,42.94
2022-08-14T23:18:54.043Z,43.25
2022-08-14T23:21:24.408Z,43.43
2022-08-14T23:23:55.282Z,43.15
2022-08-14T23:26:48.842Z,43.62
2022-08-14T23:29:15.732Z,43.47
2022-08-14T23:31:44.765Z,43.54
2022-08-14T23:34:20.973Z,43.50
2022-08-14T23:36:54.003Z,43.34
2022-08-14T23:39:31.495Z,43.46
2022-08-14T23:42:02.506Z,43.57
2022-08-14T23:44:35.297Z,43.54
2022-08-14T23:47:05.760Z,43.91
2022-08-14T23:50:00.184Z,43.78
2022-08-14T23:52:50.071Z,43.95
2022-08-14T23:55:13.739Z,43.76
2022-08-14T23:57:44.250Z,44.21
